Aviation Digital Data Service (ADDS)

Output produced by METARs form (1809 UTC 14 August 2018)
found at http://www.aviationweather.gov/adds/metars/
 
DTTA 141800Z 02007KT 1000 SCT026TCU 29/20 Q1013 NOSIG
TAF DTTA 141700Z 1418/1518 35012KT 9999 FEW026 
     PROB30 
     TEMPO 1418/1421 TS -RA FEW026TCU FEW030CB 
     BECMG 1421/1423 29010KT 
     PROB30 
     TEMPO 1510/1515 -TSRA FEW026TCU FEW030CB
       
DTTR 141600Z 27005KT 210V310 9999 SCT026 39/11 Q1013
DTTG 141800Z 10010KT 9999 FEW020 33/15 Q1013 NOSIG
TAF DTTG 141500Z 1416/1501 09010KT 9999 FEW020
       
DTTF 141800Z 36012KT 8000 BKN026 FEW033CB 28/17 Q1012 CB/N
TAF DTTF 141500Z 1416/1501 VRB05KT 9999 FE0W26 
     BECMG 1417/1419 14010KT 
     PROB40 
     TEMPO 1417/1424 VRB20G30KT 4000 TS RA FEW026TCU FEW030CB
       
DTMB 141800Z 10010KT CAVOK 31/22 Q1012
TAF DTMB 141700Z 1418/1518 11012KT CAVOK 
     BECMG 1419/1421 19008KT 
     BECMG 1507/1509 34010KT 
     BECMG 1510/1512 VRB04KT 
     PROB40 
     TEMPO 1513/1518 VRB20G30KT 4000 TS RA FEW030CB
       
DTTZ 141800Z VRB01G12KT 9999 SCT026TCU 38/11 Q1011 NOSIG
TAF COR DTTZ 141700Z 1418/1518 25006KT 9999 SCT026 
     PROB30 1418/1421 -TSRA SCT026TCU 
     BECMG 1500/1502 09010KT 
     TEMPO 1513/1518 15004KT
       
DTTD 141800Z 09006KT 050V140 9999 SCT026 36/13 Q1013
DTTB 141800Z 32007KT 280V350 9999 SCT020TCU 28/21 Q1013
DTKA 141700Z 33006KT 290V020 9999 SCT020 29/21 Q1014 NOSIG
TAF DTKA 141500Z 1416/1501 34008KT 9999 FEW020 
     PROB30 
     TEMPO 1418/1501 33020G30KT 4000 TS RA FEW020TCU FEW023CB
       
DTTX 141800Z 13008KT 9999 FEW020`20/23 Q1012
TAF DTTX 141700Z 1418/1518 11010KT 9999 FEW020 
     BECMG 1422/1424 23003KT 
     BECMG 1510/1512 09010KT
       
DTTJ 141800Z 07007KT 9999 FEW026TCU 31/19 Q1012 NOSIG
TAF DTTJ 141700Z 1418/1518 09008KT 9999 FEW026